This is the latest recevied weather packets stored in our database for station/object IZ2MHJ-3. If no packets are shown the sender has not sent any weather packets the latest 10 day(s).
| Time | Temp. | Humidity | Pressure | Rain* | Wind** | Luminosity | Snow |
|---|---|---|---|---|---|---|---|
| 1787465457 | 23.33° C | 67% | 1020.7 hPa | - | - | - | - |
| 1787464257 | 21.67° C | 70% | 1020.5 hPa | - | - | - | - |
| 1787463057 | 21.67° C | 69% | 1020.3 hPa | - | - | - | - |
| 1787461856 | 20.56° C | 70% | 1020.1 hPa | - | - | - | - |
| 1787460656 | 20.56° C | 69% | 1019.9 hPa | - | - | - | - |
| 1787459456 | 20° C | 70% | 1019.8 hPa | - | - | - | - |
| 1787458256 | 20° C | 71% | 1019.5 hPa | - | - | - | - |
| 1787457055 | 19.44° C | 72% | 1019.3 hPa | - | - | - | - |
| 1787455855 | 20° C | 72% | 1019.4 hPa | - | - | - | - |
| 1787454655 | 20.56° C | 69% | 1019.5 hPa | - | - | - | - |
| 1787453454 | 20.56° C | 70% | 1019.5 hPa | - | - | - | - |
| 1787452254 | 20.56° C | 69% | 1019.5 hPa | - | - | - | - |
| 1787451054 | 20.56° C | 68% | 1019.3 hPa | - | - | - | - |
| 1787449853 | 20° C | 70% | 1019.2 hPa | - | - | - | - |
| 1787448653 | 21.11° C | 67% | 1019 hPa | - | - | - | - |
| 1787447453 | 21.11° C | 67% | 1019 hPa | - | - | - | - |
| 1787446252 | 20.56° C | 69% | 1018.8 hPa | - | - | - | - |
| 1787445052 | 21.11° C | 67% | 1018.7 hPa | - | - | - | - |
| 1787443852 | 21.67° C | 66% | 1018.6 hPa | - | - | - | - |
| 1787442652 | 21.11° C | 68% | 1018.5 hPa | - | - | - | - |
| 1787441451 | 21.11° C | 66% | 1018.4 hPa | - | - | - | - |
| 1787440251 | 21.67° C | 65% | 1018.3 hPa | - | - | - | - |
| 1787439050 | 22.22° C | 63% | 1018.1 hPa | - | - | - | - |
| 1787437850 | 21.67° C | 64% | 1018 hPa | - | - | - | - |
| 1787436650 | 22.22° C | 63% | 1018 hPa | - | - | - | - |
* Rain since midnight (hover to see other rain measurements)
** Current wind speed in m/s (hover to see current wind gust speed)